Excalibur — IBAP — position and weather

sailwx.info

Track history (hours):
 
Tides and Currents Weather Stations Pressure Air Temp Water Temp Dewpoint Dewpoint Depression Visibility Wind Speed Wind Dir Waves Ship Positions

Excalibur

Last reported at 2018-Feb-22 14:42 UTC. Time now 2018-Feb-22 15:16 UTC.
Position N 40°12' E 002°57'.

Length 104 m; draft 5.9 m.

Type: Tanker. MMSI: 247241200.

Date/timePositionNaut miles runAvg speedWind from/ knotsBaromVisibWave heightAir tempDewpointWater temp
2018-Feb-22 14:42N 40°12' E 002°57'914.2
2018-Feb-22 14:06N 40°17' E 002°48'114.5
2018-Feb-22 14:00N 40°18' E 002°46'  
2018-Feb-14 17:42N 37°30' E 015°38'313.4
2018-Feb-14 17:30N 37°31' E 015°40'713.8
2018-Feb-14 16:58N 37°37' E 015°46'714.2
2018-Feb-14 16:28N 37°42' E 015°53'714.0
2018-Feb-14 15:59N 37°47' E 015°59'16913.6
2018-Feb-14 03:35N 39°50' E 018°27'114.1
2018-Feb-14 03:30N 39°51' E 018°28'714.3
2018-Feb-14 03:00N 39°58' E 018°31'3 0.1
2018-Feb-12 19:14N 39°60' E 018°33'312.4
2018-Feb-12 19:00N 39°57' E 018°31'612.3
2018-Feb-12 18:31N 39°52' E 018°28'  
Track history (hours):
 
Tides and Currents Weather Stations Pressure Air Temp Water Temp Dewpoint Dewpoint Depression Visibility Wind Speed Wind Dir Waves Ship Positions

Excalibur

Last reported at 2018-Feb-22 14:42 UTC. Time now 2018-Feb-22 15:16 UTC.
Position N 40°12' E 002°57'.

Length 104 m; draft 5.9 m.

Type: Tanker. MMSI: 247241200.

Date/timePositionNaut miles runAvg speedWind from/ knotsBaromVisibWave heightAir tempDewpointWater temp
2018-Feb-22 14:42N 40°12' E 002°57'914.2
2018-Feb-22 14:06N 40°17' E 002°48'114.5
2018-Feb-22 14:00N 40°18' E 002°46'  
2018-Feb-14 17:42N 37°30' E 015°38'313.4
2018-Feb-14 17:30N 37°31' E 015°40'713.8
2018-Feb-14 16:58N 37°37' E 015°46'714.2
2018-Feb-14 16:28N 37°42' E 015°53'714.0
2018-Feb-14 15:59N 37°47' E 015°59'16913.6
2018-Feb-14 03:35N 39°50' E 018°27'114.1
2018-Feb-14 03:30N 39°51' E 018°28'714.3
2018-Feb-14 03:00N 39°58' E 018°31'3 0.1
2018-Feb-12 19:14N 39°60' E 018°33'312.4
2018-Feb-12 19:00N 39°57' E 018°31'612.3
2018-Feb-12 18:31N 39°52' E 018°28'  

Dump ship's entire track history